ADDS METAR Data INFO
IDs: Format: Raw Decoded Include TAF

Data at: 0203 UTC 14 Dec 2017

KIFA 140155Z AUTO 34025G29KT 10SM OVC019 M01/M05 A2983 RMK AO2 T10101049
KIFA 140135Z AUTO 33019G24KT 10SM OVC019 M01/M04 A2982 RMK AO2 T10081045
KIFA 140115Z AUTO 33017G25KT 10SM OVC019 00/M04 A2981 RMK AO2 T10051041
KIFA 140055Z AUTO 33018G29KT 10SM OVC019 00/M04 A2980 RMK AO2 T10021039
KIFA 140035Z AUTO 32023G30KT 10SM OVC019 00/M04 A2979 RMK AO2 T10011040
KIFA 140015Z AUTO 32024G31KT 10SM OVC019 00/M04 A2978 RMK AO2 T00001037
KIFA 132355Z AUTO 32024G31KT 10SM OVC021 00/M04 A2977 RMK AO2 T00001038 10022 20000
KIFA 132335Z AUTO 31026G33KT 10SM OVC021 00/M04 A2975 RMK AO2 T00001039
KIFA 132315Z AUTO 31030G38KT 10SM OVC019 00/M04 A2974 RMK AO2 T00001038
KIFA 132255Z AUTO 31027G33KT 10SM OVC019 01/M03 A2973 RMK AO2 T00051033
KIFA 132235Z AUTO 32022G31KT 10SM OVC019 01/M03 A2972 RMK AO2 T00051030
KIFA 132215Z AUTO 32025G33KT 10SM OVC021 01/M03 A2970 RMK AO2 T00071030
KIFA 132155Z AUTO 32028G36KT 10SM OVC019 01/M03 A2968 RMK AO2 T00101030
KIFA 132135Z AUTO 31026G39KT 10SM OVC019 01/M02 A2966 RMK AO2 T00111025
KIFA 132115Z AUTO 31027G37KT 10SM OVC019 02/M02 A2965 RMK AO2 T00151021
KIFA 132055Z AUTO 31030G41KT 10SM OVC019 02/M02 A2964 RMK AO2 T00151025
KIFA 132035Z AUTO 31026G37KT 10SM OVC019 02/M02 A2963 RMK AO2 T00151023
KIFA 132015Z AUTO 31027G36KT 10SM OVC017 01/M02 A2963 RMK AO2 T00131020
KIFA 131955Z AUTO 31025G39KT 10SM OVC017 01/M02 A2961 RMK AO2 T00141018
KIFA 131935Z AUTO 31028G41KT 10SM OVC017 02/M02 A2960 RMK AO2 T00151016
KIFA 131915Z AUTO 31033G40KT 10SM OVC017 02/M01 A2959 RMK AO2 T00151015
KIFA 131855Z AUTO 31032G39KT 10SM OVC013 01/M01 A2958 RMK AO2 T00131013
KIFA 131835Z AUTO 31029G37KT 10SM OVC013 02/M01 A2958 RMK AO2 T00151010
KIFA 131815Z AUTO 31030G39KT 10SM OVC013 02/M01 A2957 RMK AO2 T00151006
KIFA 131755Z AUTO 30029G40KT 10SM OVC015 02/00 A2956 RMK AO2 T00221002 10060 20015
KIFA 131735Z AUTO 31030G43KT 10SM OVC013 02/00 A2955 RMK AO2 T00220000
KIFA 131715Z AUTO 31027G39KT 10SM OVC013 02/00 A2954 RMK AO2 T00230002
KIFA 131655Z AUTO 30030G38KT 10SM OVC011 03/01 A2953 RMK AO2 T00250009
KIFA 131635Z AUTO 30026G34KT 7SM RA OVC011 02/01 A2952 RMK AO2 T00230010
KIFA 131615Z AUTO 30027G34KT 4SM -RA BKN011 OVC014 02/01 A2950 RMK AO2 T00210007
KIFA 131555Z AUTO 30027G38KT 7SM -RA BKN013 OVC018 03/01 A2949 RMK AO2 T00270009
KIFA 131535Z AUTO 30031G42KT 10SM -RA BKN018 OVC026 05/01 A2946 RMK AO2 T00460007
KIFA 131515Z AUTO 30030G37KT 10SM -DZ BKN027 OVC031 06/00 A2944 RMK AO2 T00570001
KIFA 131455Z AUTO 29029G34KT 10SM OVC033 06/00 A2943 RMK AO2 T00591001
KIFA 131435Z AUTO 28019G33KT 10SM SCT035 SCT085 06/M01 A2942 RMK AO2 T00581009
KIFA 131415Z AUTO 29030G39KT 10SM CLR 06/M01 A2942 RMK AO2 T00601015
KIFA 131355Z AUTO 28019G28KT 10SM CLR 06/M02 A2942 RMK AO2 T00551021
KIFA 131335Z AUTO 27019G27KT 10SM SCT100 SCT120 06/M03 A2942 RMK AO2 T00551026
KIFA 131315Z AUTO 28021G26KT 7SM CLR 05/M03 A2942 RMK AO2 T00511030
KIFA 131255Z AUTO 27019G25KT 7SM CLR 05/M03 A2941 RMK AO2 T00481035
KIFA 131235Z AUTO 26017KT 7SM CLR 04/M04 A2940 RMK AO2 T00401036
KIFA 131215Z AUTO 25012KT 7SM CLR 02/M04 A2941 RMK AO2 T00221037
KIFA 131155Z AUTO 24014KT 7SM CLR 02/M04 A2942 RMK AO2 T00151036 10022 21022
KIFA 131135Z AUTO 23018G21KT 10SM CLR 02/M03 A2943 RMK AO2 T00221035
KIFA 131115Z AUTO 22014G20KT 7SM CLR 01/M03 A2944 RMK AO2 T00101033
KIFA 131055Z AUTO 22015KT 7SM CLR 01/M03 A2946 RMK AO2 T00071035
KIFA 131035Z AUTO 21011KT 7SM CLR 00/M03 A2947 RMK AO2 T00031035
KIFA 131015Z AUTO 20011KT 7SM CLR 00/M04 A2948 RMK AO2 T00001037
KIFA 130955Z AUTO 20013KT 7SM CLR 00/M04 A2949 RMK AO2 T10021037
KIFA 130935Z AUTO 20010KT 7SM CLR 00/M04 A2951 RMK AO2 T10041038
KIFA 130915Z AUTO 20011KT 7SM CLR 00/M04 A2954 RMK AO2 T10051040
KIFA 130855Z AUTO 20012KT 7SM CLR M01/M04 A2955 RMK AO2 T10071042
KIFA 130835Z AUTO 20013KT 7SM CLR M01/M04 A2957 RMK AO2 T10071042
KIFA 130815Z AUTO 20014KT 7SM CLR M01/M04 A2958 RMK AO2 T10071043
KIFA 130755Z AUTO 19015KT 7SM CLR M01/M04 A2959 RMK AO2 T10101045
KIFA 130735Z AUTO 19013KT 7SM CLR M01/M05 A2962 RMK AO2 T10151046
KIFA 130715Z AUTO 19013KT 7SM CLR M02/M05 A2964 RMK AO2 T10191050
KIFA 130655Z AUTO 19014KT 7SM CLR M02/M05 A2966 RMK AO2 T10201050
KIFA 130635Z AUTO 19014KT 7SM CLR M02/M05 A2968 RMK AO2 T10201052
KIFA 130615Z AUTO 19013KT 7SM CLR M02/M05 A2971 RMK AO2 T10211053
KIFA 130555Z AUTO 19013KT 7SM CLR M02/M05 A2973 RMK AO2 T10221055 10001 21032 400081125
KIFA 130535Z AUTO 19013KT 7SM CLR M02/M05 A2974 RMK AO2 T10201055
KIFA 130515Z AUTO 19013KT 7SM CLR M02/M05 A2977 RMK AO2 T10161053
KIFA 130455Z AUTO 19011KT 7SM SCT075 M02/M05 A2979 RMK AO2 T10161055
KIFA 130435Z AUTO 19011KT 7SM SCT075 M01/M05 A2980 RMK AO2 T10151055
KIFA 130415Z AUTO 19012KT 7SM SCT065 M01/M05 A2982 RMK AO2 T10071052
KIFA 130355Z AUTO 19014G18KT 7SM OVC065 00/M05 A2984 RMK AO2 T00011048
KIFA 130335Z AUTO 20011KT 7SM BKN070 OVC075 00/M05 A2986 RMK AO2 T00001050
KIFA 130315Z AUTO 20013KT 7SM OVC070 00/M05 A2987 RMK AO2 T00001052
KIFA 130255Z AUTO 20011KT 7SM OVC080 00/M06 A2989 RMK AO2 T10051056
KIFA 130235Z AUTO 20010KT 10SM BKN080 OVC095 M01/M06 A2990 RMK AO2 T10081058
KIFA 130215Z AUTO 20009KT 7SM SCT080 BKN095 M02/M06 A2991 RMK AO2 T10191061
KIFA 130155Z AUTO 20010KT 5SM HZ SCT095 M03/M07 A2992 RMK AO2 T10281066
KIFA 130135Z AUTO 19008KT 7SM SCT095 M03/M07 A2993 RMK AO2 T10271066
KIFA 130115Z AUTO 19008KT 7SM BKN075 BKN095 M02/M07 A2994 RMK AO2 T10231066
KIFA 130055Z AUTO 20007KT 7SM BKN075 M02/M06 A2995 RMK AO2 T10231065
KIFA 130035Z AUTO 20007KT 7SM SCT075 M02/M07 A2996 RMK AO2 T10251068
KIFA 130015Z AUTO 20007KT 7SM CLR M03/M07 A2997 RMK AO2 T10271070
KIFA 122355Z AUTO 21006KT 7SM CLR M03/M07 A2999 RMK AO2 T10321075 10008 21045
KIFA 122335Z AUTO 22006KT 5SM HZ CLR M03/M08 A2999 RMK AO2 T10311077
KIFA 122315Z AUTO 21006KT 5SM HZ CLR M02/M07 A2999 RMK AO2 T10181072
KIFA 122255Z AUTO 21006KT 7SM SCT027 SCT100 M01/M07 A3000 RMK AO2 T10091071
KIFA 122235Z AUTO 22007KT 7SM SCT100 00/M07 A3001 RMK AO2 T00021067
KIFA 122215Z AUTO 25010KT 7SM BKN090 01/M07 A3002 RMK AO2 T00051067
KIFA 122155Z AUTO 24010KT 5SM HZ SCT050 OVC090 01/M07 A3004 RMK AO2 T00051075
KIFA 122135Z AUTO 24008KT 5SM HZ SCT050 OVC100 00/M08 A3004 RMK AO2 T00011077
KIFA 122115Z AUTO 25009KT 5SM HZ OVC100 00/M08 A3006 RMK AO2 T10011085
KIFA 122055Z AUTO 25009KT 7SM SCT050 OVC100 00/M09 A3006 RMK AO2 T10051089
KIFA 122035Z AUTO 24009KT 5SM HZ BKN050 OVC110 M01/M09 A3007 RMK AO2 T10121095
KIFA 122015Z AUTO 25008KT 5SM HZ SCT050 BKN120 M01/M10 A3010 RMK AO2 T10101098
KIFA 121955Z AUTO 29009KT 5SM HZ CLR M01/M10 A3012 RMK AO2 T10101104
KIFA 121935Z AUTO 29010G14KT 10SM CLR M01/M11 A3013 RMK AO2 T10141110
KIFA 121915Z AUTO 27011KT 10SM CLR M02/M12 A3015 RMK AO2 T10211122
KIFA 121855Z AUTO 27010KT 10SM CLR M03/M13 A3015 RMK AO2 T10321132
KIFA 121835Z AUTO 27011KT 10SM CLR M03/M13 A3016 RMK AO2 T10331134
KIFA 121815Z AUTO 27009G14KT 10SM CLR M04/M13 A3017 RMK AO2 T10391134
KIFA 121755Z AUTO 27010KT 10SM CLR M04/M13 A3019 RMK AO2 T10451133 11045 21125
KIFA 121735Z AUTO 27007KT 10SM CLR M05/M13 A3020 RMK AO2 T10511131
KIFA 121715Z AUTO 27007KT 10SM CLR M06/M13 A3021 RMK AO2 T10611134
KIFA 121655Z AUTO 30007KT 10SM CLR M07/M13 A3024 RMK AO2 T10661129
KIFA 121635Z AUTO 30009KT 10SM CLR M07/M13 A3025 RMK AO2 T10731126
KIFA 121615Z AUTO 29010KT 10SM SCT075 M08/M13 A3026 RMK AO2 T10801128
KIFA 121555Z AUTO 29011KT 10SM SCT075 M09/M13 A3025 RMK AO2 T10871128
KIFA 121535Z AUTO 29009KT 10SM SCT075 M09/M13 A3025 RMK AO2 T10911127
KIFA 121515Z AUTO 29010KT 10SM SCT075 M10/M13 A3024 RMK AO2 T10981130
KIFA 121455Z AUTO 30008KT 10SM CLR M10/M13 A3025 RMK AO2 T11011130
KIFA 121435Z AUTO 30006KT 10SM CLR M11/M13 A3025 RMK AO2 T11101135
KIFA 121415Z AUTO 29007KT 10SM CLR M12/M14 A3024 RMK AO2 T11201140